createdAt,value
2019-03-31T00:00:49.670Z,10.40
2019-03-31T00:01:56.008Z,10.40
2019-03-31T00:03:01.682Z,10.50
2019-03-31T00:04:07.076Z,10.50
2019-03-31T00:05:12.739Z,10.60
2019-03-31T00:06:18.685Z,10.60
2019-03-31T00:07:24.271Z,10.60
2019-03-31T00:08:29.727Z,10.60
2019-03-31T00:09:37.605Z,10.60
2019-03-31T00:10:42.859Z,10.60
2019-03-31T00:11:48.168Z,10.60
2019-03-31T00:12:53.425Z,10.60
2019-03-31T00:13:58.667Z,10.50
2019-03-31T00:15:04.441Z,10.50
2019-03-31T00:16:09.620Z,10.40
2019-03-31T00:17:16.032Z,10.40
2019-03-31T00:18:21.180Z,10.40
2019-03-31T00:19:26.498Z,10.40
2019-03-31T00:20:31.938Z,10.40
2019-03-31T00:21:37.399Z,10.40
2019-03-31T00:22:42.659Z,10.40
2019-03-31T00:23:47.887Z,10.40
2019-03-31T00:24:53.659Z,10.40
2019-03-31T00:25:59.011Z,10.30
2019-03-31T00:27:04.569Z,10.40
2019-03-31T00:28:09.870Z,10.40
2019-03-31T00:29:15.465Z,10.30
2019-03-31T00:30:20.740Z,10.30
2019-03-31T00:31:26.055Z,10.30
2019-03-31T00:32:31.704Z,10.20
2019-03-31T00:33:39.657Z,10.20
2019-03-31T00:34:44.994Z,10.10
2019-03-31T00:35:50.280Z,10.10
2019-03-31T00:36:55.672Z,10.20
2019-03-31T00:38:01.039Z,10.10
2019-03-31T00:39:08.731Z,10.10
2019-03-31T00:40:14.193Z,10.10
2019-03-31T00:41:19.508Z,10.10
2019-03-31T00:42:24.713Z,10.10
2019-03-31T00:43:30.195Z,10.10
2019-03-31T00:44:35.567Z,10.10
2019-03-31T00:45:40.981Z,10.10
2019-03-31T00:46:46.204Z,10.10
2019-03-31T00:47:51.532Z,10.00
2019-03-31T00:48:56.876Z,10.00
2019-03-31T00:50:02.183Z,10.00
2019-03-31T00:51:07.504Z,10.00
2019-03-31T00:52:12.779Z,10.00
2019-03-31T00:53:18.471Z,10.00
2019-03-31T00:54:23.738Z,10.00
2019-03-31T00:55:29.129Z,10.00
2019-03-31T00:56:34.466Z,9.90
2019-03-31T00:57:39.964Z,9.90
2019-03-31T00:58:45.293Z,10.00
2019-03-31T00:59:50.594Z,9.90
2019-03-31T01:01:15.460Z,9.90
2019-03-31T01:02:25.497Z,9.90
2019-03-31T01:03:32.411Z,9.90
2019-03-31T01:04:38.915Z,9.90
2019-03-31T01:05:45.053Z,9.90
2019-03-31T01:06:54.410Z,9.80
2019-03-31T01:08:00.845Z,9.90
2019-03-31T01:09:19.275Z,9.80
2019-03-31T01:10:25.096Z,9.80
2019-03-31T01:11:30.718Z,9.80
2019-03-31T01:12:36.260Z,9.80
2019-03-31T01:13:41.884Z,9.80
2019-03-31T01:14:47.247Z,9.80
2019-03-31T01:15:55.648Z,9.80
2019-03-31T01:17:02.346Z,9.80
2019-03-31T01:18:08.562Z,9.80
2019-03-31T01:19:14.485Z,9.70
2019-03-31T01:20:19.845Z,9.70
2019-03-31T01:21:25.181Z,9.70
2019-03-31T01:22:30.593Z,9.70
2019-03-31T01:23:36.385Z,9.70
2019-03-31T01:24:41.681Z,9.70
2019-03-31T01:25:47.112Z,9.70
2019-03-31T01:26:52.581Z,9.70
2019-03-31T01:27:58.109Z,9.60
2019-03-31T01:29:03.869Z,9.60
2019-03-31T01:30:10.370Z,9.50
2019-03-31T01:31:15.724Z,9.50
2019-03-31T01:32:21.162Z,9.50
2019-03-31T01:33:26.695Z,9.40
2019-03-31T01:34:32.139Z,9.40
2019-03-31T01:35:40.373Z,9.40
2019-03-31T01:36:45.705Z,9.30
2019-03-31T01:37:51.035Z,9.20
2019-03-31T01:38:56.742Z,9.20
2019-03-31T01:40:02.107Z,9.10
2019-03-31T01:41:07.463Z,9.10
2019-03-31T01:42:12.848Z,9.10
2019-03-31T01:43:18.381Z,9.00
2019-03-31T01:44:23.949Z,9.00
2019-03-31T01:45:29.376Z,9.00
2019-03-31T01:46:34.974Z,9.00
2019-03-31T01:47:40.561Z,9.00
2019-03-31T01:48:45.892Z,9.10
2019-03-31T01:49:51.139Z,9.20
2019-03-31T01:50:56.503Z,9.20
2019-03-31T01:52:02.015Z,9.20
2019-03-31T01:53:07.625Z,9.40
2019-03-31T01:54:13.278Z,9.40
2019-03-31T01:55:20.488Z,9.40
2019-03-31T01:56:26.569Z,9.40
2019-03-31T01:57:32.562Z,9.30
2019-03-31T01:58:38.642Z,9.30
2019-03-31T01:59:47.027Z,9.20
2019-03-31T02:00:56.132Z,9.20
2019-03-31T02:02:04.298Z,9.10
2019-03-31T02:03:09.885Z,9.20
2019-03-31T02:04:16.090Z,9.20
2019-03-31T02:05:22.060Z,9.20
2019-03-31T02:06:28.069Z,9.20
2019-03-31T02:07:34.249Z,9.20
2019-03-31T02:08:40.702Z,9.30
2019-03-31T02:09:46.799Z,9.30
2019-03-31T02:10:52.850Z,9.30
2019-03-31T02:11:58.875Z,9.40
2019-03-31T02:13:04.951Z,9.40
2019-03-31T02:14:10.289Z,9.40
2019-03-31T02:15:16.461Z,9.40
2019-03-31T02:16:22.359Z,9.40
2019-03-31T02:17:28.398Z,9.40
2019-03-31T02:18:34.357Z,9.40
2019-03-31T02:19:40.214Z,9.40
2019-03-31T02:20:46.228Z,9.30
2019-03-31T02:21:52.791Z,9.30
2019-03-31T02:22:58.751Z,9.20
2019-03-31T02:24:04.873Z,9.20
2019-03-31T02:25:10.914Z,9.20
2019-03-31T02:26:17.102Z,9.30
2019-03-31T02:27:23.039Z,9.30
2019-03-31T02:28:29.324Z,9.30
2019-03-31T02:29:35.291Z,9.20
2019-03-31T02:30:41.327Z,9.20
2019-03-31T02:31:48.040Z,9.20
2019-03-31T02:32:54.141Z,9.10
2019-03-31T02:34:00.306Z,9.00
2019-03-31T02:35:06.542Z,9.00
2019-03-31T02:36:12.429Z,8.90
2019-03-31T02:37:18.556Z,8.90
2019-03-31T02:38:24.484Z,8.90
2019-03-31T02:39:30.476Z,8.80
2019-03-31T02:40:36.812Z,8.80
2019-03-31T02:41:43.106Z,8.80
2019-03-31T02:42:49.164Z,8.80
2019-03-31T02:43:55.622Z,8.80
2019-03-31T02:45:01.501Z,8.80
2019-03-31T02:46:07.756Z,8.90
2019-03-31T02:47:13.779Z,8.90
2019-03-31T02:48:20.056Z,8.80
2019-03-31T02:49:26.126Z,8.80
2019-03-31T02:50:47.389Z,8.80
2019-03-31T02:51:53.564Z,8.80
2019-03-31T02:52:59.552Z,8.80
2019-03-31T02:54:05.867Z,8.80
2019-03-31T02:55:11.905Z,8.70
2019-03-31T02:56:18.839Z,8.80
2019-03-31T02:57:25.839Z,8.70
2019-03-31T02:58:32.769Z,8.80
2019-03-31T02:59:39.023Z,8.90
2019-03-31T03:00:45.396Z,8.80
2019-03-31T03:01:53.179Z,8.80
2019-03-31T03:03:00.256Z,8.80
2019-03-31T03:04:08.039Z,8.80
2019-03-31T03:05:19.721Z,8.70
2019-03-31T03:06:23.878Z,8.70
2019-03-31T03:07:31.050Z,8.60
2019-03-31T03:08:38.936Z,8.60
2019-03-31T03:09:46.869Z,8.70
2019-03-31T03:10:55.003Z,8.60
2019-03-31T03:12:01.535Z,8.60
2019-03-31T03:13:10.200Z,8.70
2019-03-31T03:14:17.683Z,8.70
2019-03-31T03:15:31.030Z,8.70
2019-03-31T03:16:37.208Z,8.60
2019-03-31T03:17:43.255Z,8.60
2019-03-31T03:18:50.087Z,8.60
2019-03-31T03:19:56.323Z,8.60
2019-03-31T03:21:02.402Z,8.60
2019-03-31T03:22:08.492Z,8.60
2019-03-31T03:23:14.679Z,8.60
2019-03-31T03:24:20.751Z,8.60
2019-03-31T03:25:26.584Z,8.60
2019-03-31T03:26:32.825Z,8.60
2019-03-31T03:27:38.716Z,8.60
2019-03-31T03:28:44.822Z,8.50
2019-03-31T03:29:50.999Z,8.60
2019-03-31T03:30:57.331Z,8.60
2019-03-31T03:32:03.660Z,8.60
2019-03-31T03:33:16.445Z,8.60
2019-03-31T03:34:17.343Z,8.50
2019-03-31T03:35:23.365Z,8.50
2019-03-31T03:36:29.234Z,8.50
2019-03-31T03:37:35.351Z,8.50
2019-03-31T03:38:41.531Z,8.50
2019-03-31T03:39:47.453Z,8.50
2019-03-31T03:40:53.395Z,8.50
2019-03-31T03:41:59.627Z,8.50
2019-03-31T03:43:05.667Z,8.50
2019-03-31T03:44:11.834Z,8.50
2019-03-31T03:45:17.965Z,8.40
2019-03-31T03:46:23.683Z,8.40
2019-03-31T03:47:29.046Z,8.40
2019-03-31T03:48:34.707Z,8.30
2019-03-31T03:49:40.240Z,8.30
2019-03-31T03:50:45.519Z,8.30
2019-03-31T03:51:51.305Z,8.30
2019-03-31T03:52:56.567Z,8.30
2019-03-31T03:54:01.925Z,8.20
2019-03-31T03:55:07.197Z,8.20
2019-03-31T03:56:12.465Z,8.10
2019-03-31T03:57:17.762Z,8.10
2019-03-31T03:58:23.120Z,8.10
2019-03-31T03:59:28.533Z,8.10
2019-03-31T04:00:33.903Z,8.00
2019-03-31T04:01:39.278Z,8.00
2019-03-31T04:02:44.547Z,8.00
2019-03-31T04:03:50.258Z,8.00
2019-03-31T04:04:55.509Z,7.90
2019-03-31T04:06:00.872Z,7.90
2019-03-31T04:07:06.068Z,7.90
2019-03-31T04:08:11.321Z,7.90
2019-03-31T04:09:16.769Z,7.90
2019-03-31T04:11:11.443Z,7.90
2019-03-31T04:12:16.803Z,7.90
2019-03-31T04:13:22.109Z,7.80
2019-03-31T04:14:27.445Z,7.80
2019-03-31T04:15:32.887Z,7.70
2019-03-31T04:16:38.211Z,7.70
2019-03-31T04:17:43.487Z,7.70
2019-03-31T04:18:48.855Z,7.70
2019-03-31T04:19:54.195Z,7.60
2019-03-31T04:20:59.475Z,7.60
2019-03-31T04:22:04.718Z,7.70
2019-03-31T04:23:10.023Z,7.70
2019-03-31T04:24:15.331Z,7.70
2019-03-31T04:25:20.611Z,7.60
2019-03-31T04:26:26.106Z,7.70
2019-03-31T04:27:31.443Z,7.60
2019-03-31T04:28:36.685Z,7.60
2019-03-31T04:29:41.857Z,7.60
2019-03-31T04:30:47.118Z,7.60
2019-03-31T04:31:52.694Z,7.60
2019-03-31T04:32:57.947Z,7.60
2019-03-31T04:34:03.194Z,7.60
2019-03-31T04:35:08.438Z,7.50
2019-03-31T04:36:13.729Z,7.50
2019-03-31T04:37:18.938Z,7.50
2019-03-31T04:38:24.190Z,7.50
2019-03-31T04:39:29.438Z,7.50
2019-03-31T04:40:35.110Z,7.50
2019-03-31T04:41:40.429Z,7.40
2019-03-31T04:42:45.831Z,7.40
2019-03-31T04:43:51.591Z,7.40
2019-03-31T04:44:56.855Z,7.40
2019-03-31T04:46:02.153Z,7.40
2019-03-31T04:47:07.402Z,7.40
2019-03-31T04:48:12.751Z,7.40
2019-03-31T04:49:17.997Z,7.40
2019-03-31T04:50:23.319Z,7.30
2019-03-31T04:51:28.682Z,7.30
2019-03-31T04:52:33.973Z,7.30
2019-03-31T04:53:39.324Z,7.40
2019-03-31T04:54:44.641Z,7.40
2019-03-31T04:55:50.144Z,7.40
2019-03-31T04:56:55.373Z,7.40
2019-03-31T04:58:00.668Z,7.30
2019-03-31T04:59:06.005Z,7.30
2019-03-31T05:00:11.393Z,7.30
2019-03-31T05:01:16.734Z,7.30
2019-03-31T05:02:22.343Z,7.30
2019-03-31T05:03:27.640Z,7.30
2019-03-31T05:04:32.921Z,7.30
2019-03-31T05:05:38.200Z,7.20
2019-03-31T05:06:43.572Z,7.20
2019-03-31T05:07:48.910Z,7.30
2019-03-31T05:08:54.473Z,7.30
2019-03-31T05:09:59.775Z,7.30
2019-03-31T05:11:05.115Z,7.30
2019-03-31T05:12:12.149Z,7.30
2019-03-31T05:13:17.439Z,7.30
2019-03-31T05:14:25.495Z,7.20
2019-03-31T05:15:30.733Z,7.20
2019-03-31T05:16:35.961Z,7.30
2019-03-31T05:17:41.159Z,7.30
2019-03-31T05:18:46.446Z,7.30
2019-03-31T05:19:51.663Z,7.30
2019-03-31T05:20:56.917Z,7.30
2019-03-31T05:22:02.471Z,7.20
2019-03-31T05:23:07.784Z,7.20
2019-03-31T05:24:13.325Z,7.20
2019-03-31T05:25:18.554Z,7.20
2019-03-31T05:26:23.800Z,7.20
2019-03-31T05:27:29.105Z,7.20
2019-03-31T05:28:34.377Z,7.20
2019-03-31T05:29:39.628Z,7.10
2019-03-31T05:30:44.923Z,7.10
2019-03-31T05:31:50.379Z,7.10
2019-03-31T05:32:55.854Z,7.10
2019-03-31T05:34:01.492Z,7.10
2019-03-31T05:35:06.918Z,7.10
2019-03-31T05:36:12.284Z,7.10
2019-03-31T05:37:17.538Z,7.00
2019-03-31T05:38:23.373Z,7.00
2019-03-31T05:39:28.786Z,7.00
2019-03-31T05:40:33.995Z,7.00
2019-03-31T05:41:39.564Z,7.00
2019-03-31T05:42:44.899Z,7.10
2019-03-31T05:44:04.872Z,7.00
2019-03-31T05:44:57.962Z,7.00
2019-03-31T05:46:03.726Z,6.90
2019-03-31T05:47:09.225Z,6.90
2019-03-31T05:48:14.525Z,6.90
2019-03-31T05:49:20.246Z,6.90
2019-03-31T05:50:25.632Z,6.90
2019-03-31T05:51:31.311Z,6.90
2019-03-31T05:52:36.904Z,6.80
2019-03-31T05:53:42.359Z,6.70
2019-03-31T05:54:47.820Z,6.70
2019-03-31T05:55:53.195Z,6.70
2019-03-31T05:56:58.537Z,6.70
2019-03-31T05:58:04.025Z,6.70
2019-03-31T05:59:09.565Z,6.70
2019-03-31T06:00:17.852Z,6.70
2019-03-31T06:01:23.175Z,6.70
2019-03-31T06:02:28.626Z,6.70
2019-03-31T06:03:33.890Z,6.70
2019-03-31T06:04:39.217Z,6.70
2019-03-31T06:05:44.561Z,6.70
2019-03-31T06:06:49.773Z,6.70
2019-03-31T06:07:56.097Z,6.70
2019-03-31T06:09:01.328Z,6.70
2019-03-31T06:10:07.189Z,6.70
2019-03-31T06:11:12.465Z,6.70
2019-03-31T06:12:17.814Z,6.80
2019-03-31T06:13:23.014Z,6.80
2019-03-31T06:14:28.358Z,6.70
2019-03-31T06:15:33.636Z,6.70
2019-03-31T06:16:38.860Z,6.70
2019-03-31T06:17:44.125Z,6.70
2019-03-31T06:18:49.336Z,6.70
2019-03-31T06:19:54.874Z,6.70
2019-03-31T06:21:00.142Z,6.70
2019-03-31T06:22:05.482Z,6.70
2019-03-31T06:23:10.976Z,6.70
2019-03-31T06:24:16.263Z,6.70
2019-03-31T06:25:21.536Z,6.70
2019-03-31T06:26:26.869Z,6.70
2019-03-31T06:27:32.072Z,6.80
2019-03-31T06:28:37.358Z,6.90
2019-03-31T06:29:42.603Z,6.90
2019-03-31T06:30:47.944Z,7.00
2019-03-31T06:31:53.371Z,7.00
2019-03-31T06:32:58.607Z,7.00
2019-03-31T06:34:03.978Z,6.90
2019-03-31T06:35:09.355Z,6.90
2019-03-31T06:36:14.754Z,6.90
2019-03-31T06:37:20.011Z,7.00
2019-03-31T06:38:25.262Z,7.00
2019-03-31T06:39:34.006Z,7.00
2019-03-31T06:40:37.619Z,7.10
2019-03-31T06:41:42.954Z,7.10
2019-03-31T06:42:48.167Z,7.20
2019-03-31T06:43:53.676Z,7.20
2019-03-31T06:44:58.945Z,7.30
2019-03-31T06:46:04.308Z,7.50
2019-03-31T06:47:09.700Z,7.50
2019-03-31T06:48:15.021Z,7.70
2019-03-31T06:49:20.371Z,7.80
2019-03-31T06:50:25.760Z,7.80
2019-03-31T06:51:30.942Z,7.90
2019-03-31T06:52:36.398Z,7.90
2019-03-31T06:53:41.998Z,8.10
2019-03-31T06:54:47.233Z,8.30
2019-03-31T06:55:52.861Z,8.60
2019-03-31T06:56:58.135Z,8.70
2019-03-31T06:58:03.491Z,8.90
2019-03-31T06:59:08.757Z,9.00
2019-03-31T07:00:14.619Z,9.30
2019-03-31T07:01:20.018Z,9.50
2019-03-31T07:02:25.269Z,9.60
2019-03-31T07:03:30.570Z,9.60
2019-03-31T07:04:35.751Z,9.50
2019-03-31T07:05:41.308Z,9.60
2019-03-31T07:06:46.494Z,9.80
2019-03-31T07:07:52.343Z,10.00
2019-03-31T07:08:57.719Z,10.00
2019-03-31T07:10:02.963Z,10.20
2019-03-31T07:11:08.219Z,10.10
2019-03-31T07:12:13.544Z,10.10
2019-03-31T07:13:18.843Z,9.90
2019-03-31T07:14:24.249Z,10.00
2019-03-31T07:15:29.447Z,10.20
2019-03-31T07:16:34.769Z,10.40
2019-03-31T07:17:40.506Z,10.30
2019-03-31T07:18:45.809Z,10.30
2019-03-31T07:19:51.036Z,10.40
2019-03-31T07:20:56.414Z,10.50
2019-03-31T07:22:01.792Z,10.30
2019-03-31T07:23:07.198Z,10.50
2019-03-31T07:24:12.599Z,10.40
2019-03-31T07:25:17.891Z,10.30
2019-03-31T07:26:23.240Z,10.50
2019-03-31T07:27:28.461Z,10.90
2019-03-31T07:28:33.829Z,11.00
2019-03-31T07:29:39.133Z,10.90
2019-03-31T07:30:44.410Z,10.80
2019-03-31T07:31:49.841Z,10.90
2019-03-31T07:32:55.134Z,10.90
2019-03-31T07:34:00.414Z,11.00
2019-03-31T07:35:17.875Z,11.20
2019-03-31T07:36:12.848Z,11.40
2019-03-31T07:37:18.129Z,11.50
2019-03-31T07:38:23.575Z,11.60
2019-03-31T07:39:29.516Z,11.70
2019-03-31T07:40:35.003Z,11.70
2019-03-31T07:41:40.413Z,11.50
2019-03-31T07:42:45.830Z,11.40
2019-03-31T07:43:51.217Z,11.50
2019-03-31T07:44:56.442Z,11.50
2019-03-31T07:46:01.728Z,11.40
2019-03-31T07:47:06.995Z,11.50
2019-03-31T07:48:12.330Z,11.20
2019-03-31T07:49:17.760Z,11.00
2019-03-31T07:50:23.359Z,10.80
2019-03-31T07:51:28.668Z,10.70
2019-03-31T07:52:34.110Z,10.50
2019-03-31T07:53:39.455Z,10.30
2019-03-31T07:54:44.742Z,10.20
2019-03-31T07:55:50.162Z,10.20
2019-03-31T07:56:55.529Z,10.00
2019-03-31T07:58:00.740Z,9.90
2019-03-31T07:59:06.078Z,9.70
2019-03-31T08:00:14.362Z,9.50
2019-03-31T08:01:19.579Z,9.50
2019-03-31T08:02:25.132Z,9.40
2019-03-31T08:03:32.730Z,9.30
2019-03-31T08:04:37.974Z,9.40
2019-03-31T08:05:43.326Z,9.70
2019-03-31T08:06:48.570Z,10.10
2019-03-31T08:07:54.285Z,10.40
2019-03-31T08:08:59.586Z,10.60
2019-03-31T08:10:05.541Z,10.60
2019-03-31T08:11:10.874Z,10.70
2019-03-31T08:12:16.376Z,10.70
2019-03-31T08:13:21.724Z,10.60
2019-03-31T08:14:27.022Z,10.50
2019-03-31T08:15:32.368Z,10.30
2019-03-31T08:16:37.775Z,10.10
2019-03-31T08:17:43.037Z,9.90
2019-03-31T08:18:48.469Z,9.90
2019-03-31T08:19:54.614Z,9.70
2019-03-31T08:20:59.921Z,9.70
2019-03-31T08:22:05.412Z,9.70
2019-03-31T08:23:10.875Z,9.90
2019-03-31T08:24:16.127Z,10.00
2019-03-31T08:25:21.604Z,10.30
2019-03-31T08:26:26.873Z,10.60
2019-03-31T08:27:32.140Z,10.60
2019-03-31T08:28:37.427Z,10.60
2019-03-31T08:29:43.338Z,10.40
2019-03-31T08:30:48.596Z,10.30
2019-03-31T08:31:54.289Z,10.30
2019-03-31T08:32:59.595Z,10.30
2019-03-31T08:34:04.923Z,10.20
2019-03-31T08:35:11.011Z,10.20
2019-03-31T08:36:16.346Z,10.10
2019-03-31T08:37:21.745Z,10.00
2019-03-31T08:38:27.152Z,10.00
2019-03-31T08:39:32.467Z,9.90
2019-03-31T08:40:37.721Z,9.80
2019-03-31T08:41:43.034Z,9.80
2019-03-31T08:42:49.476Z,9.70
2019-03-31T08:43:55.092Z,9.70
2019-03-31T08:45:00.389Z,9.60
2019-03-31T08:46:05.722Z,9.60
2019-03-31T08:47:37.930Z,9.60
2019-03-31T08:48:39.603Z,9.60
2019-03-31T08:49:44.878Z,9.60
2019-03-31T08:50:50.497Z,9.50
2019-03-31T08:51:55.903Z,9.50
2019-03-31T08:53:01.178Z,9.60
2019-03-31T08:54:06.501Z,9.60
2019-03-31T08:55:13.630Z,9.40
2019-03-31T08:56:18.984Z,9.40
2019-03-31T08:57:24.229Z,9.40
2019-03-31T08:58:29.693Z,9.40
2019-03-31T08:59:35.694Z,9.50
2019-03-31T09:00:54.269Z,9.50
2019-03-31T09:02:03.250Z,9.60
2019-03-31T09:03:08.180Z,9.80
2019-03-31T09:04:13.585Z,9.80
2019-03-31T09:05:18.871Z,9.80
2019-03-31T09:06:24.775Z,9.80
2019-03-31T09:07:30.126Z,9.90
2019-03-31T09:08:35.519Z,9.80
2019-03-31T09:09:41.041Z,9.90
2019-03-31T09:10:46.380Z,10.00
2019-03-31T09:11:51.802Z,9.90
2019-03-31T09:12:57.137Z,9.90
2019-03-31T09:14:02.373Z,9.80
2019-03-31T09:15:08.792Z,9.80
2019-03-31T09:16:14.291Z,9.80
2019-03-31T09:17:19.454Z,9.90
2019-03-31T09:18:25.097Z,10.00
2019-03-31T09:19:32.438Z,10.10
2019-03-31T09:20:37.709Z,10.10
2019-03-31T09:21:43.018Z,10.30
2019-03-31T09:22:48.401Z,10.40
2019-03-31T09:23:53.655Z,10.40
2019-03-31T09:24:58.949Z,10.50
2019-03-31T09:26:04.421Z,10.70
2019-03-31T09:27:09.722Z,10.80
2019-03-31T09:28:15.109Z,10.90
2019-03-31T09:29:20.493Z,10.90
2019-03-31T09:30:25.993Z,11.00
2019-03-31T09:31:31.237Z,11.00
2019-03-31T09:32:36.566Z,10.90
2019-03-31T09:33:41.837Z,10.70
2019-03-31T09:34:47.230Z,10.60
2019-03-31T09:35:52.615Z,10.60
2019-03-31T09:36:57.968Z,10.60
2019-03-31T09:38:03.354Z,10.50
2019-03-31T09:39:08.896Z,10.30
2019-03-31T09:40:15.179Z,10.20
2019-03-31T09:41:20.425Z,10.20
2019-03-31T09:42:26.085Z,10.20
2019-03-31T09:43:31.343Z,10.30
2019-03-31T09:44:36.699Z,10.30
2019-03-31T09:45:41.919Z,10.20
2019-03-31T09:46:47.212Z,10.20
2019-03-31T09:47:52.559Z,10.20
2019-03-31T09:48:57.829Z,10.20
2019-03-31T09:50:03.195Z,10.30
2019-03-31T09:51:08.495Z,10.40
2019-03-31T09:52:14.193Z,10.40
2019-03-31T09:53:19.452Z,10.60
2019-03-31T09:54:24.782Z,10.70
2019-03-31T09:55:30.124Z,10.70
2019-03-31T09:56:35.662Z,10.60
2019-03-31T09:57:40.985Z,10.60
2019-03-31T09:58:46.346Z,10.60
2019-03-31T09:59:51.829Z,10.60
2019-03-31T10:00:57.362Z,10.50
2019-03-31T10:02:03.013Z,10.50
2019-03-31T10:03:08.353Z,10.40
2019-03-31T10:04:14.106Z,10.40
2019-03-31T10:05:19.477Z,10.40
2019-03-31T10:06:30.532Z,10.40
2019-03-31T10:07:32.773Z,10.30
2019-03-31T10:08:38.387Z,10.20
2019-03-31T10:09:44.694Z,10.30
2019-03-31T10:10:50.328Z,10.30
2019-03-31T10:11:56.444Z,10.40
2019-03-31T10:13:02.050Z,10.50
2019-03-31T10:14:07.594Z,10.40
2019-03-31T10:15:15.077Z,10.50
2019-03-31T10:16:20.589Z,10.40
2019-03-31T10:17:25.868Z,10.30
2019-03-31T10:18:31.365Z,10.30
2019-03-31T10:19:37.234Z,10.30
2019-03-31T10:20:42.913Z,10.30
2019-03-31T10:21:48.686Z,10.40
2019-03-31T10:22:54.073Z,10.40
2019-03-31T10:23:59.850Z,10.40
2019-03-31T10:25:05.754Z,10.50
2019-03-31T10:26:11.291Z,10.50
2019-03-31T10:27:17.081Z,10.50
2019-03-31T10:28:22.494Z,10.50
2019-03-31T10:29:28.094Z,10.30
2019-03-31T10:30:34.909Z,10.30
2019-03-31T10:31:40.528Z,10.30
2019-03-31T10:32:47.521Z,10.40
2019-03-31T10:33:57.259Z,10.40
2019-03-31T10:35:03.320Z,10.50
2019-03-31T10:36:08.655Z,10.40
2019-03-31T10:37:14.028Z,10.40
2019-03-31T10:38:19.392Z,10.40
2019-03-31T10:39:24.724Z,10.30
2019-03-31T10:40:30.300Z,10.30
2019-03-31T10:41:35.563Z,10.30
2019-03-31T10:42:40.884Z,10.30
2019-03-31T10:43:46.187Z,10.30
2019-03-31T10:44:51.734Z,10.20
2019-03-31T10:45:57.663Z,10.20
2019-03-31T10:47:02.999Z,10.20
2019-03-31T10:48:20.271Z,10.30
2019-03-31T10:49:16.237Z,10.20
2019-03-31T10:50:21.776Z,10.20
2019-03-31T10:51:27.500Z,10.10
2019-03-31T10:52:33.324Z,10.20
2019-03-31T10:53:38.796Z,10.20
2019-03-31T10:54:44.409Z,10.20
2019-03-31T10:55:50.352Z,10.20
2019-03-31T10:56:55.874Z,10.20
2019-03-31T10:58:01.881Z,10.10
2019-03-31T10:59:07.505Z,10.20
2019-03-31T11:00:13.851Z,10.20
2019-03-31T11:01:19.198Z,10.30
2019-03-31T11:02:25.036Z,10.30
2019-03-31T11:03:33.045Z,10.40
2019-03-31T11:04:37.609Z,10.50
2019-03-31T11:05:43.016Z,10.60
2019-03-31T11:06:58.815Z,10.70
2019-03-31T11:07:55.768Z,10.80
2019-03-31T11:09:01.082Z,10.90
2019-03-31T11:10:06.961Z,11.10
2019-03-31T11:11:12.700Z,11.10
2019-03-31T11:12:18.575Z,11.10
2019-03-31T11:13:24.223Z,11.10
2019-03-31T11:14:29.948Z,11.10
2019-03-31T11:15:35.548Z,10.90
2019-03-31T11:16:40.863Z,10.80
2019-03-31T11:17:46.288Z,10.80
2019-03-31T11:18:51.852Z,10.80
2019-03-31T11:20:00.607Z,10.70
2019-03-31T11:21:11.128Z,10.70
2019-03-31T11:22:37.461Z,10.70
2019-03-31T11:23:43.333Z,10.50
2019-03-31T11:24:48.766Z,10.50
2019-03-31T11:25:54.535Z,10.50
2019-03-31T11:27:00.121Z,10.40
2019-03-31T11:28:06.574Z,10.40
2019-03-31T11:29:12.701Z,10.30
2019-03-31T11:30:18.432Z,10.40
2019-03-31T11:31:23.839Z,10.20
2019-03-31T11:32:29.594Z,10.10
2019-03-31T11:33:35.379Z,10.20
2019-03-31T11:34:40.637Z,10.40
2019-03-31T11:35:46.391Z,10.50
2019-03-31T11:36:51.806Z,10.60
2019-03-31T11:37:57.227Z,10.70
2019-03-31T11:39:02.800Z,10.70
2019-03-31T11:40:09.092Z,10.50
2019-03-31T11:41:14.698Z,10.40
2019-03-31T11:42:20.087Z,10.40
2019-03-31T11:43:26.843Z,10.30
2019-03-31T11:44:32.354Z,10.30
2019-03-31T11:45:37.860Z,10.30
2019-03-31T11:46:43.359Z,10.30
2019-03-31T11:47:49.247Z,10.20
2019-03-31T11:48:55.044Z,10.20
2019-03-31T11:50:00.679Z,10.30
2019-03-31T11:51:06.126Z,10.20
2019-03-31T11:52:11.936Z,10.30
2019-03-31T11:53:17.378Z,10.20
2019-03-31T11:54:24.566Z,10.20
2019-03-31T11:55:30.087Z,10.20
2019-03-31T11:56:37.252Z,10.20
2019-03-31T11:57:42.789Z,10.20
2019-03-31T11:58:48.343Z,10.30
2019-03-31T11:59:53.756Z,10.40
2019-03-31T12:00:59.250Z,10.40
2019-03-31T12:02:04.894Z,10.50
2019-03-31T12:03:10.609Z,10.60
2019-03-31T12:04:16.050Z,10.70
2019-03-31T12:05:21.883Z,10.80
2019-03-31T12:06:27.656Z,10.70
2019-03-31T12:07:46.693Z,10.90
2019-03-31T12:08:44.712Z,11.00
2019-03-31T12:09:50.620Z,11.20
2019-03-31T12:10:59.643Z,11.40
2019-03-31T12:12:08.218Z,11.60
2019-03-31T12:13:14.518Z,11.70
2019-03-31T12:14:20.043Z,11.80
2019-03-31T12:15:25.632Z,11.90
2019-03-31T12:16:31.332Z,12.00
2019-03-31T12:17:36.825Z,11.80
2019-03-31T12:18:42.259Z,11.60
2019-03-31T12:19:48.890Z,11.50
2019-03-31T12:20:54.431Z,11.40
2019-03-31T12:22:07.159Z,11.30
2019-03-31T12:23:15.265Z,11.40
2019-03-31T12:24:21.239Z,11.60
2019-03-31T12:25:32.372Z,11.70
2019-03-31T12:26:38.433Z,11.80
2019-03-31T12:27:43.981Z,11.70
2019-03-31T12:28:49.521Z,11.70
2019-03-31T12:29:55.069Z,11.60
2019-03-31T12:31:09.475Z,11.40
2019-03-31T12:32:16.823Z,11.40
2019-03-31T12:33:22.366Z,11.40
2019-03-31T12:34:31.421Z,11.30
2019-03-31T12:35:39.777Z,11.30
2019-03-31T12:36:45.554Z,11.20
2019-03-31T12:37:51.498Z,11.30
2019-03-31T12:38:57.065Z,11.30
2019-03-31T12:40:14.972Z,11.30
2019-03-31T12:41:23.962Z,11.40
2019-03-31T12:42:29.721Z,11.50
2019-03-31T12:43:35.366Z,11.60
2019-03-31T12:44:41.354Z,11.70
2019-03-31T12:45:53.884Z,11.90
2019-03-31T12:46:59.503Z,11.90
2019-03-31T12:48:13.055Z,12.10
2019-03-31T12:49:37.782Z,12.20
2019-03-31T12:51:11.452Z,12.40
2019-03-31T12:52:24.172Z,12.60
2019-03-31T12:53:29.709Z,12.70
2019-03-31T12:54:35.424Z,12.60
2019-03-31T12:55:41.538Z,12.60
2019-03-31T12:56:47.187Z,12.60
2019-03-31T12:57:55.548Z,12.60
2019-03-31T12:59:02.567Z,12.70
2019-03-31T13:00:08.915Z,12.70
2019-03-31T13:01:15.527Z,12.60
2019-03-31T13:02:21.382Z,12.50
2019-03-31T13:03:27.145Z,12.50
2019-03-31T13:04:33.125Z,12.40
2019-03-31T13:05:38.554Z,12.30
2019-03-31T13:06:44.063Z,12.40
2019-03-31T13:07:56.371Z,12.50
2019-03-31T13:08:57.246Z,12.50
2019-03-31T13:10:03.057Z,12.40
2019-03-31T13:11:08.478Z,12.20
2019-03-31T13:12:14.861Z,12.20
2019-03-31T13:13:20.416Z,12.10
2019-03-31T13:14:25.819Z,12.20
2019-03-31T13:15:31.659Z,12.30
2019-03-31T13:16:38.569Z,12.30
2019-03-31T13:17:47.112Z,12.10
2019-03-31T13:18:52.637Z,12.10
2019-03-31T13:20:17.895Z,12.10
2019-03-31T13:21:24.457Z,12.20
2019-03-31T13:22:30.301Z,12.10
2019-03-31T13:23:35.860Z,12.00
2019-03-31T13:24:41.462Z,11.80
2019-03-31T13:25:48.925Z,11.70
2019-03-31T13:26:54.709Z,11.60
2019-03-31T13:28:00.396Z,11.50
2019-03-31T13:29:06.069Z,11.50
2019-03-31T13:30:13.430Z,11.40
2019-03-31T13:31:19.459Z,11.50
2019-03-31T13:32:25.041Z,11.50
2019-03-31T13:33:30.494Z,11.50
2019-03-31T13:34:36.094Z,11.60
2019-03-31T13:35:41.610Z,11.70
2019-03-31T13:36:47.240Z,11.80
2019-03-31T13:37:53.031Z,11.90
2019-03-31T13:38:58.659Z,12.00
2019-03-31T13:40:07.372Z,12.00
2019-03-31T13:41:13.277Z,12.10
2019-03-31T13:42:19.143Z,12.20
2019-03-31T13:43:24.575Z,12.30
2019-03-31T13:44:30.664Z,12.30
2019-03-31T13:45:41.563Z,12.20
2019-03-31T13:46:50.642Z,12.20
2019-03-31T13:47:58.723Z,12.40
2019-03-31T13:49:06.063Z,12.40
2019-03-31T13:50:12.934Z,12.30
2019-03-31T13:51:28.149Z,12.30
2019-03-31T13:52:36.941Z,12.20
2019-03-31T13:53:42.633Z,12.10
2019-03-31T13:54:48.092Z,12.20
2019-03-31T13:55:54.088Z,12.30
2019-03-31T13:56:59.877Z,12.30
2019-03-31T13:58:13.935Z,12.30
2019-03-31T13:59:18.684Z,12.30
2019-03-31T14:00:57.205Z,12.30
2019-03-31T14:02:08.420Z,12.10
2019-03-31T14:03:14.637Z,11.90
2019-03-31T14:04:20.034Z,11.80
2019-03-31T14:05:37.409Z,11.70
2019-03-31T14:06:55.480Z,11.60
2019-03-31T14:08:04.460Z,11.50
2019-03-31T14:09:10.793Z,11.50
2019-03-31T14:10:16.891Z,11.50
2019-03-31T14:11:26.541Z,11.60
2019-03-31T14:12:51.118Z,11.50
2019-03-31T14:13:57.092Z,11.60
2019-03-31T14:15:02.866Z,11.70
2019-03-31T14:16:08.170Z,11.90
2019-03-31T14:17:14.220Z,12.00
2019-03-31T14:18:20.650Z,11.90
2019-03-31T14:19:52.281Z,11.80
2019-03-31T14:20:57.844Z,11.70
2019-03-31T14:22:18.209Z,11.80
2019-03-31T14:23:46.945Z,11.80
2019-03-31T14:24:57.740Z,11.90
2019-03-31T14:26:04.598Z,11.90
2019-03-31T14:27:10.597Z,11.90
2019-03-31T14:28:16.189Z,11.80
2019-03-31T14:29:22.115Z,11.90